Time,TemperatureF,DewpointF,PressureIn,WindDirection,WindDirectionDegrees,WindSpeedMPH,WindSpeedGustMPH,Humidity,HourlyPrecipIn,Conditions,Clouds,dailyrainin,SoftwareType,DateUTC
2013-05-22 00:02:00,59.0,57.0,-100.00,West,260,2.0,3.0,92,0.00,,,-99.99,,2013-05-22 05:02:00,
2013-05-22 00:12:00,59.0,57.0,-100.00,West,260,2.0,3.0,92,0.00,,,-99.99,,2013-05-22 05:12:00,
2013-05-22 00:21:00,58.0,56.0,-100.00,WSW,240,0.0,1.0,95,0.00,,,-99.99,,2013-05-22 05:21:00,
2013-05-22 00:32:00,56.0,56.0,-100.00,SE,145,2.0,2.0,99,0.00,,,-99.99,,2013-05-22 05:32:00,
2013-05-22 00:42:00,56.0,56.0,-100.00,ESE,115,3.0,3.0,99,0.00,,,-99.99,,2013-05-22 05:42:00,
2013-05-22 00:52:00,56.0,56.0,-100.00,ESE,115,3.0,3.0,99,0.00,,,-99.99,,2013-05-22 05:52:00,
2013-05-22 01:01:00,54.0,54.0,-100.00,SE,125,1.0,2.0,99,0.00,,,-99.99,,2013-05-22 06:01:00,
2013-05-22 01:11:00,54.0,54.0,-100.00,SE,125,1.0,2.0,99,0.00,,,-99.99,,2013-05-22 06:11:00,
2013-05-22 01:21:00,54.0,54.0,-100.00,South,175,1.0,2.0,99,0.00,,,-99.99,,2013-05-22 06:21:00,
2013-05-22 01:32:00,54.0,54.0,-100.00,South,175,1.0,2.0,99,0.00,,,-99.99,,2013-05-22 06:32:00,
2013-05-22 01:42:00,54.0,54.0,-100.00,South,175,1.0,2.0,99,0.00,,,-99.99,,2013-05-22 06:42:00,
2013-05-22 01:52:00,53.0,-99.9,-100.00,South,170,1.0,1.0,-999,0.00,,,-99.99,,2013-05-22 06:52:00,
2013-05-22 02:01:00,53.0,53.0,-100.00,SSE,160,1.0,2.0,99,0.00,,,-99.99,,2013-05-22 07:01:00,
2013-05-22 02:11:00,53.0,53.0,-100.00,South,170,1.0,2.0,99,0.00,,,-99.99,,2013-05-22 07:11:00,
2013-05-22 02:21:00,53.0,53.0,-100.00,South,170,1.0,2.0,99,0.00,,,-99.99,,2013-05-22 07:21:00,
2013-05-22 02:31:00,53.0,53.0,-100.00,South,170,1.0,2.0,99,0.00,,,-99.99,,2013-05-22 07:31:00,
2013-05-22 02:42:00,53.0,53.0,-100.00,South,170,1.0,2.0,99,0.00,,,-99.99,,2013-05-22 07:42:00,
2013-05-22 02:52:00,53.0,53.0,-100.00,South,170,1.0,2.0,99,0.00,,,-99.99,,2013-05-22 07:52:00,
2013-05-22 03:11:00,53.0,53.0,-100.00,South,175,1.0,2.0,99,0.00,,,-99.99,,2013-05-22 08:11:00,
2013-05-22 03:22:00,53.0,53.0,-100.00,South,175,1.0,2.0,99,0.00,,,-99.99,,2013-05-22 08:22:00,
2013-05-22 03:32:00,54.0,-99.9,-100.00,South,170,2.0,2.0,-999,0.00,,,-99.99,,2013-05-22 08:32:00,
2013-05-22 03:42:00,54.0,54.0,-100.00,SSW,195,1.0,3.0,99,0.00,,,-99.99,,2013-05-22 08:42:00,
2013-05-22 03:51:00,54.0,54.0,-100.00,SSW,200,1.0,4.0,99,0.00,,,-99.99,,2013-05-22 08:51:00,
2013-05-22 04:01:00,54.0,54.0,-100.00,SSW,195,1.0,3.0,99,0.00,,,-99.99,,2013-05-22 09:01:00,
2013-05-22 04:11:00,54.0,54.0,-100.00,SW,215,2.0,2.0,99,0.00,,,-99.99,,2013-05-22 09:11:00,
2013-05-22 04:21:00,54.0,54.0,-100.00,SW,215,2.0,2.0,99,0.00,,,-99.99,,2013-05-22 09:21:00,
2013-05-22 04:33:00,54.0,54.0,-100.00,SE,125,3.0,4.0,99,0.00,,,-99.99,,2013-05-22 09:33:00,
2013-05-22 04:42:00,54.0,54.0,-100.00,SSW,195,2.0,4.0,99,0.00,,,-99.99,,2013-05-22 09:42:00,
2013-05-22 04:53:00,54.0,54.0,-100.00,SSE,155,2.0,3.0,99,0.00,,,-99.99,,2013-05-22 09:53:00,
2013-05-22 05:03:00,54.0,54.0,-100.00,SSE,155,2.0,3.0,99,0.00,,,-99.99,,2013-05-22 10:03:00,
2013-05-22 05:12:00,54.0,54.0,-100.00,SSE,155,2.0,3.0,99,0.00,,,-99.99,,2013-05-22 10:12:00,
2013-05-22 05:22:00,54.0,54.0,-100.00,East,100,1.0,3.0,99,0.00,,,-99.99,,2013-05-22 10:22:00,
2013-05-22 05:33:00,54.0,54.0,-100.00,East,100,1.0,3.0,99,0.00,,,-99.99,,2013-05-22 10:33:00,
2013-05-22 05:42:00,54.0,54.0,-100.00,South,170,1.0,2.0,99,0.00,,,-99.99,,2013-05-22 10:42:00,
2013-05-22 05:52:00,53.0,53.0,-100.00,SSE,160,2.0,3.0,99,0.00,,,-99.99,,2013-05-22 10:52:00,
2013-05-22 06:02:00,53.0,53.0,-100.00,SSE,160,2.0,3.0,99,0.00,,,-99.99,,2013-05-22 11:02:00,
2013-05-22 06:12:00,53.0,-99.9,-100.00,SSE,165,0.0,2.0,-999,0.00,,,-99.99,,2013-05-22 11:12:00,
2013-05-22 06:22:00,53.0,-99.9,-100.00,SSE,165,0.0,2.0,-999,0.00,,,-99.99,,2013-05-22 11:22:00,
2013-05-22 06:32:00,53.0,53.0,-100.00,SE,125,1.0,2.0,99,0.00,,,-99.99,,2013-05-22 11:32:00,
2013-05-22 06:41:00,53.0,53.0,-100.00,SE,125,1.0,2.0,99,0.00,,,-99.99,,2013-05-22 11:41:00,
2013-05-22 06:52:00,54.0,54.0,-100.00,SE,130,1.0,2.0,99,0.00,,,-99.99,,2013-05-22 11:52:00,
2013-05-22 07:02:00,54.0,-99.9,-100.00,SE,145,1.0,2.0,-999,0.00,,,-99.99,,2013-05-22 12:02:00,
2013-05-22 07:12:00,55.0,55.0,-100.00,ESE,120,2.0,2.0,99,0.00,,,-99.99,,2013-05-22 12:12:00,
2013-05-22 07:22:00,56.0,56.0,-100.00,South,170,2.0,2.0,99,0.00,,,-99.99,,2013-05-22 12:22:00,
2013-05-22 07:32:00,58.0,58.0,-100.00,South,170,1.0,3.0,99,0.00,,,-99.99,,2013-05-22 12:32:00,
2013-05-22 07:42:00,58.0,58.0,-100.00,South,170,1.0,3.0,99,0.00,,,-99.99,,2013-05-22 12:42:00,
2013-05-22 07:52:00,58.0,58.0,-100.00,SSW,210,3.0,4.0,99,0.00,,,-99.99,,2013-05-22 12:52:00,
2013-05-22 08:01:00,58.0,58.0,-100.00,SW,220,4.0,5.0,99,0.00,,,-99.99,,2013-05-22 13:01:00,
2013-05-22 08:11:00,57.0,57.0,-100.00,WSW,240,6.0,7.0,99,0.00,,,-99.99,,2013-05-22 13:11:00,
2013-05-22 08:22:00,57.0,57.0,-100.00,WSW,240,6.0,7.0,99,0.00,,,-99.99,,2013-05-22 13:22:00,
2013-05-22 08:32:00,57.0,57.0,-100.00,WSW,245,4.0,6.0,99,0.00,,,-99.99,,2013-05-22 13:32:00,
2013-05-22 08:41:00,57.0,57.0,-100.00,WSW,245,4.0,6.0,99,0.00,,,-99.99,,2013-05-22 13:41:00,
2013-05-22 08:52:00,58.0,58.0,-100.00,WSW,250,6.0,9.0,99,0.00,,,-99.99,,2013-05-22 13:52:00,
2013-05-22 09:02:00,58.0,58.0,-100.00,WSW,250,6.0,9.0,99,0.00,,,-99.99,,2013-05-22 14:02:00,
2013-05-22 09:11:00,58.0,58.0,-100.00,WSW,255,6.0,9.0,99,0.00,,,-99.99,,2013-05-22 14:11:00,
2013-05-22 09:21:00,58.0,58.0,-100.00,WSW,255,6.0,9.0,99,0.00,,,-99.99,,2013-05-22 14:21:00,
2013-05-22 09:32:00,57.0,-99.9,-100.00,West,265,7.0,9.0,-999,0.00,,,-99.99,,2013-05-22 14:32:00,
2013-05-22 09:42:00,57.0,-99.9,-100.00,West,265,7.0,9.0,-999,0.00,,,-99.99,,2013-05-22 14:42:00,
2013-05-22 09:52:00,57.0,57.0,-100.00,SW,225,6.0,7.0,99,0.00,,,-99.99,,2013-05-22 14:52:00,
2013-05-22 10:01:00,57.0,57.0,-100.00,SW,225,6.0,7.0,99,0.00,,,-99.99,,2013-05-22 15:01:00,
2013-05-22 10:11:00,57.0,57.0,-100.00,SW,230,4.0,7.0,99,0.00,,,-99.99,,2013-05-22 15:11:00,
2013-05-22 10:22:00,57.0,57.0,-100.00,SW,230,4.0,6.0,99,0.00,,,-99.99,,2013-05-22 15:22:00,
2013-05-22 10:32:00,57.0,57.0,-100.00,SW,230,4.0,6.0,99,0.00,,,-99.99,,2013-05-22 15:32:00,
2013-05-22 10:42:00,57.0,57.0,-100.00,SW,230,4.0,6.0,99,0.00,,,-99.99,,2013-05-22 15:42:00,
2013-05-22 10:53:00,58.0,58.0,-100.00,SW,225,6.0,9.0,99,0.00,,,-99.99,,2013-05-22 15:53:00,
2013-05-22 11:03:00,58.0,58.0,-100.00,SW,235,6.0,11.0,99,0.00,,,-99.99,,2013-05-22 16:03:00,
2013-05-22 11:12:00,58.0,58.0,-100.00,SW,235,6.0,11.0,99,0.00,,,-99.99,,2013-05-22 16:12:00,
2013-05-22 11:23:00,58.0,58.0,-100.00,SW,235,6.0,11.0,99,0.00,,,-99.99,,2013-05-22 16:23:00,
2013-05-22 11:32:00,58.0,58.0,-100.00,WSW,240,10.0,14.0,99,0.00,,,-99.99,,2013-05-22 16:32:00,
2013-05-22 11:42:00,58.0,58.0,-100.00,WSW,240,9.0,14.0,99,0.00,,,-99.99,,2013-05-22 16:42:00,
2013-05-22 11:52:00,59.0,59.0,-100.00,West,260,10.0,13.0,99,0.00,,,-99.99,,2013-05-22 16:52:00,
2013-05-22 12:02:00,58.0,58.0,-100.00,WSW,245,14.0,17.0,99,0.00,,,-99.99,,2013-05-22 17:02:00,
2013-05-22 12:11:00,58.0,58.0,-100.00,WSW,245,14.0,17.0,99,0.00,,,-99.99,,2013-05-22 17:11:00,
2013-05-22 12:23:00,61.0,-99.9,-100.00,WSW,255,14.0,17.0,-999,0.00,,,-99.99,,2013-05-22 17:23:00,
2013-05-22 12:33:00,61.0,61.0,-100.00,SW,235,10.0,17.0,99,0.00,,,-99.99,,2013-05-22 17:33:00,
2013-05-22 12:42:00,61.0,61.0,-100.00,SW,235,10.0,17.0,99,0.00,,,-99.99,,2013-05-22 17:42:00,
2013-05-22 12:54:00,62.0,62.0,-100.00,SW,225,9.0,16.0,99,0.00,,,-99.99,,2013-05-22 17:54:00,
2013-05-22 13:02:00,62.0,62.0,-100.00,WSW,250,11.0,15.0,99,0.00,,,-99.99,,2013-05-22 18:02:00,
2013-05-22 13:14:00,62.0,62.0,-100.00,WSW,250,11.0,15.0,99,0.00,,,-99.99,,2013-05-22 18:14:00,
2013-05-22 13:22:00,63.0,63.0,-100.00,WSW,250,8.0,14.0,99,0.00,,,-99.99,,2013-05-22 18:22:00,
2013-05-22 13:33:00,63.0,62.0,-100.00,SW,235,9.0,14.0,96,0.00,,,-99.99,,2013-05-22 18:33:00,
2013-05-22 13:42:00,63.0,62.0,-100.00,SW,220,9.0,14.0,94,0.00,,,-99.99,,2013-05-22 18:42:00,
2013-05-22 13:52:00,65.0,63.0,-100.00,West,265,8.0,12.0,94,0.00,,,-99.99,,2013-05-22 18:52:00,
2013-05-22 14:02:00,64.0,62.0,-100.00,West,260,8.0,16.0,94,0.00,,,-99.99,,2013-05-22 19:02:00,
2013-05-22 14:11:00,64.0,62.0,-100.00,West,260,8.0,16.0,94,0.00,,,-99.99,,2013-05-22 19:11:00,
2013-05-22 14:21:00,64.0,62.0,-100.00,SW,230,12.0,15.0,91,0.00,,,-99.99,,2013-05-22 19:21:00,
2013-05-22 14:32:00,64.0,62.0,-100.00,West,260,7.0,14.0,92,0.00,,,-99.99,,2013-05-22 19:32:00,
2013-05-22 14:42:00,62.0,-99.9,-100.00,West,270,16.0,22.0,-999,0.07,,,-99.99,,2013-05-22 19:42:00,
2013-05-22 14:52:00,62.0,62.0,-100.00,West,280,10.0,16.0,99,0.00,,,-99.99,,2013-05-22 19:52:00,
2013-05-22 15:02:00,62.0,62.0,-100.00,West,280,10.0,16.0,99,0.00,,,-99.99,,2013-05-22 20:02:00,
2013-05-22 15:11:00,63.0,63.0,-100.00,West,265,11.0,15.0,99,0.00,,,-99.99,,2013-05-22 20:11:00,
2013-05-22 15:21:00,63.0,63.0,-100.00,West,265,11.0,15.0,99,0.00,,,-99.99,,2013-05-22 20:21:00,
2013-05-22 15:32:00,61.0,-99.9,-100.00,WSW,250,8.0,14.0,-999,0.00,,,-99.99,,2013-05-22 20:32:00,
2013-05-22 15:42:00,62.0,62.0,-100.00,West,260,11.0,16.0,99,0.00,,,-99.99,,2013-05-22 20:42:00,
2013-05-22 15:51:00,63.0,63.0,-100.00,WSW,250,10.0,14.0,99,0.00,,,-99.99,,2013-05-22 20:51:00,
2013-05-22 16:01:00,63.0,63.0,-100.00,WSW,250,10.0,14.0,99,0.00,,,-99.99,,2013-05-22 21:01:00,
2013-05-22 16:11:00,63.0,63.0,-100.00,West,275,10.0,20.0,99,0.00,,,-99.99,,2013-05-22 21:11:00,
2013-05-22 16:21:00,63.0,63.0,-100.00,West,275,10.0,20.0,99,0.00,,,-99.99,,2013-05-22 21:21:00,
2013-05-22 16:32:00,63.0,62.0,-100.00,West,280,16.0,21.0,98,0.00,,,-99.99,,2013-05-22 21:32:00,
2013-05-22 16:42:00,63.0,61.0,-100.00,West,280,14.0,21.0,95,0.00,,,-99.99,,2013-05-22 21:42:00,
2013-05-22 16:52:00,62.0,61.0,-100.00,West,280,20.0,27.0,96,0.00,,,-99.99,,2013-05-22 21:52:00,
2013-05-22 17:03:00,62.0,61.0,-100.00,West,280,20.0,27.0,96,0.00,,,-99.99,,2013-05-22 22:03:00,
2013-05-22 17:12:00,62.0,61.0,-100.00,WNW,285,16.0,24.0,96,0.00,,,-99.99,,2013-05-22 22:12:00,
2013-05-22 17:22:00,62.0,62.0,-100.00,West,275,16.0,21.0,99,0.00,,,-99.99,,2013-05-22 22:22:00,
2013-05-22 17:33:00,61.0,61.0,-100.00,WNW,285,18.0,25.0,99,0.00,,,-99.99,,2013-05-22 22:33:00,
2013-05-22 17:42:00,61.0,61.0,-100.00,WNW,285,18.0,25.0,99,0.00,,,-99.99,,2013-05-22 22:42:00,
2013-05-22 17:52:00,60.0,60.0,-100.00,West,280,17.0,24.0,99,0.00,,,-99.99,,2013-05-22 22:52:00,
2013-05-22 18:02:00,60.0,60.0,-100.00,West,280,17.0,24.0,99,0.00,,,-99.99,,2013-05-22 23:02:00,
2013-05-22 18:12:00,59.0,59.0,-100.00,West,280,21.0,28.0,99,0.00,,,-99.99,,2013-05-22 23:12:00,
2013-05-22 18:21:00,59.0,59.0,-100.00,WNW,285,17.0,23.0,99,0.00,,,-99.99,,2013-05-22 23:21:00,
2013-05-22 18:32:00,59.0,59.0,-100.00,West,275,15.0,19.0,99,0.00,,,-99.99,,2013-05-22 23:32:00,
2013-05-22 18:42:00,59.0,59.0,-100.00,West,275,15.0,19.0,99,0.00,,,-99.99,,2013-05-22 23:42:00,
2013-05-22 18:52:00,58.0,58.0,-100.00,WNW,300,13.0,17.0,99,0.00,,,-99.99,,2013-05-22 23:52:00,
2013-05-22 19:02:00,58.0,-99.9,-100.00,WNW,290,16.0,24.0,-999,0.00,,,-99.99,,2013-05-23 00:02:00,
2013-05-22 19:11:00,58.0,-99.9,-100.00,WNW,290,16.0,24.0,-999,0.00,,,-99.99,,2013-05-23 00:11:00,
2013-05-22 19:22:00,58.0,58.0,-100.00,West,275,13.0,18.0,99,0.00,,,-99.99,,2013-05-23 00:22:00,
2013-05-22 19:31:00,58.0,58.0,-100.00,West,280,12.0,19.0,99,0.00,,,-99.99,,2013-05-23 00:31:00,
2013-05-22 19:42:00,58.0,58.0,-100.00,WNW,285,11.0,19.0,99,0.00,,,-99.99,,2013-05-23 00:42:00,
2013-05-22 19:52:00,57.0,-99.9,-100.00,West,280,12.0,23.0,-999,0.00,,,-99.99,,2013-05-23 00:52:00,
2013-05-22 20:02:00,57.0,-99.9,-100.00,West,280,12.0,23.0,-999,0.00,,,-99.99,,2013-05-23 01:02:00,
2013-05-22 20:11:00,57.0,57.0,-100.00,West,280,13.0,21.0,99,0.00,,,-99.99,,2013-05-23 01:11:00,
2013-05-22 20:21:00,57.0,57.0,-100.00,West,280,13.0,21.0,99,0.00,,,-99.99,,2013-05-23 01:21:00,
2013-05-22 20:32:00,57.0,57.0,-100.00,West,280,16.0,19.0,99,0.03,,,-99.99,,2013-05-23 01:32:00,
2013-05-22 20:42:00,57.0,57.0,-100.00,West,280,16.0,19.0,99,0.03,,,-99.99,,2013-05-23 01:42:00,
2013-05-22 20:52:00,56.0,56.0,-100.00,West,275,12.0,19.0,99,0.00,,,-99.99,,2013-05-23 01:52:00,
2013-05-22 21:01:00,56.0,56.0,-100.00,West,275,12.0,19.0,99,0.00,,,-99.99,,2013-05-23 02:01:00,
2013-05-22 21:11:00,56.0,56.0,-100.00,WNW,285,13.0,19.0,99,0.00,,,-99.99,,2013-05-23 02:11:00,
2013-05-22 21:21:00,56.0,56.0,-100.00,WNW,285,13.0,19.0,99,0.00,,,-99.99,,2013-05-23 02:21:00,
2013-05-22 21:31:00,55.0,55.0,-100.00,WNW,285,12.0,18.0,99,0.00,,,-99.99,,2013-05-23 02:31:00,
2013-05-22 21:42:00,55.0,55.0,-100.00,WNW,285,12.0,18.0,99,0.00,,,-99.99,,2013-05-23 02:42:00,
2013-05-22 21:51:00,55.0,55.0,-100.00,WNW,285,12.0,18.0,99,0.00,,,-99.99,,2013-05-23 02:51:00,
2013-05-22 22:01:00,55.0,55.0,-100.00,West,280,13.0,17.0,99,0.00,,,-99.99,,2013-05-23 03:01:00,
2013-05-22 22:11:00,55.0,55.0,-100.00,West,280,13.0,17.0,99,0.00,,,-99.99,,2013-05-23 03:11:00,
2013-05-22 22:21:00,55.0,55.0,-100.00,West,280,12.0,17.0,99,0.00,,,-99.99,,2013-05-23 03:21:00,
2013-05-22 22:33:00,55.0,55.0,-100.00,West,280,16.0,22.0,99,0.00,,,-99.99,,2013-05-23 03:33:00,
2013-05-22 22:43:00,55.0,55.0,-100.00,West,280,16.0,22.0,99,0.00,,,-99.99,,2013-05-23 03:43:00,
2013-05-22 22:53:00,55.0,55.0,-100.00,West,280,12.0,16.0,99,0.04,,,-99.99,,2013-05-23 03:53:00,
2013-05-22 23:03:00,55.0,55.0,-100.00,WNW,285,13.0,17.0,99,0.00,,,-99.99,,2013-05-23 04:03:00,
2013-05-22 23:12:00,55.0,55.0,-100.00,WNW,285,13.0,17.0,99,0.00,,,-99.99,,2013-05-23 04:12:00,
2013-05-22 23:22:00,55.0,55.0,-100.00,WNW,290,13.0,17.0,99,0.07,,,-99.99,,2013-05-23 04:22:00,
2013-05-22 23:33:00,55.0,55.0,-100.00,WNW,285,12.0,17.0,99,0.00,,,-99.99,,2013-05-23 04:33:00,
2013-05-22 23:42:00,55.0,55.0,-100.00,WNW,290,14.0,17.0,99,0.06,,,-99.99,,2013-05-23 04:42:00,
2013-05-22 23:52:00,55.0,55.0,-100.00,WNW,285,13.0,16.0,99,0.04,,,-99.99,,2013-05-23 04:52:00,